Time;durP1;ratioP1;P1;durP2;ratioP2;P2;SDS_P1;SDS_P2;PMS_P1;PMS_P2;Temp;Humidity;BMP_temperature;BMP_pressure;BME280_temperature;BME280_humidity;BME280_pressure;Samples;Min_cycle;Max_cycle;Signal;HPM_P1;HPM_P2
2023/06/14 00:00:16;;;;;;;5.68;4.80;;;;;;;16.11;53.31;98157.97;4965808;28;103221;-65
2023/06/14 00:02:44;;;;;;;6.00;5.10;;;;;;;16.08;53.39;98154.81;4968979;28;103383;-65
2023/06/14 00:05:14;;;;;;;6.50;5.17;;;;;;;15.97;53.73;98163.91;4969362;28;103113;-66
2023/06/14 00:07:43;;;;;;;6.22;5.07;;;;;;;16.38;52.77;98164.97;4966985;28;103952;-65
2023/06/14 00:10:13;;;;;;;5.60;4.93;;;;;;;16.59;52.31;98161.91;4969241;28;103352;-65
2023/06/14 00:12:44;;;;;;;6.78;4.90;;;;;;;16.39;52.78;98177.31;4981347;28;102948;-64
2023/06/14 00:15:11;;;;;;;5.50;5.00;;;;;;;16.25;53.18;98169.91;4968348;28;102817;-64
2023/06/14 00:17:39;;;;;;;5.68;5.10;;;;;;;16.67;51.88;98162.75;4968484;28;103757;-65
2023/06/14 00:20:09;;;;;;;5.35;4.82;;;;;;;16.72;52.12;98168.47;4967496;28;103251;-65
2023/06/14 00:22:38;;;;;;;5.22;4.50;;;;;;;16.93;51.44;98164.50;4968689;28;102727;-65
2023/06/14 00:25:09;;;;;;;4.43;3.72;;;;;;;17.15;50.96;98169.22;4970694;28;104047;-65
2023/06/14 00:27:57;;;;;;;6.50;5.05;;;;;;;16.53;53.08;98168.69;4968179;28;103064;-65
2023/06/14 00:30:30;;;;;;;5.60;5.05;;;;;;;16.94;52.85;98166.16;4969170;28;103213;-65
2023/06/14 00:32:58;;;;;;;4.68;4.05;;;;;;;16.98;52.92;98156.84;4967968;28;103211;-65
2023/06/14 00:35:26;;;;;;;4.00;3.70;;;;;;;17.33;51.70;98159.22;4984570;28;103019;-65
2023/06/14 00:37:55;;;;;;;5.03;4.53;;;;;;;17.25;51.61;98157.41;4968199;28;105010;-64
2023/06/14 00:40:23;;;;;;;5.93;4.70;;;;;;;16.23;53.65;98163.88;4968564;28;103191;-65
2023/06/14 00:42:51;;;;;;;4.80;4.40;;;;;;;16.71;52.74;98160.59;4966610;28;103208;-65
2023/06/14 00:45:21;;;;;;;4.85;4.22;;;;;;;17.02;51.88;98159.03;4967664;28;102773;-65
2023/06/14 00:47:52;;;;;;;6.32;4.82;;;;;;;16.25;53.68;98159.25;4968559;28;103189;-64
2023/06/14 00:50:21;;;;;;;4.63;4.22;;;;;;;16.76;51.76;98153.78;4969467;28;103224;-64
2023/06/14 00:52:50;;;;;;;5.93;5.10;;;;;;;16.37;53.90;98160.63;4968211;28;102899;-65
2023/06/14 00:55:18;;;;;;;4.85;4.05;;;;;;;16.35;54.07;98159.94;4971636;28;102803;-64
2023/06/14 00:57:47;;;;;;;4.90;4.43;;;;;;;16.36;54.88;98152.78;4965421;28;103809;-64
2023/06/14 01:00:16;;;;;;;4.93;4.43;;;;;;;16.62;53.59;98158.91;4968152;28;103268;-65
2023/06/14 01:02:45;;;;;;;5.33;4.80;;;;;;;16.41;54.31;98169.97;4963595;28;103208;-65
2023/06/14 01:05:15;;;;;;;5.60;4.72;;;;;;;16.43;53.98;98169.81;4961936;28;103236;-64
2023/06/14 01:07:55;;;;;;;5.72;5.13;;;;;;;15.78;55.66;98168.59;4966458;28;103189;-66
2023/06/14 01:10:33;;;;;;;6.03;5.13;;;;;;;15.48;56.41;98162.72;4969545;28;103557;-65
2023/06/14 01:13:08;;;;;;;5.35;4.85;;;;;;;16.14;54.66;98159.53;4984050;28;105372;-64
2023/06/14 01:15:38;;;;;;;6.00;5.03;;;;;;;16.46;54.14;98166.81;4965988;28;103112;-65
2023/06/14 01:18:08;;;;;;;5.83;4.83;;;;;;;16.09;55.31;98169.78;4964625;28;104819;-65
2023/06/14 01:20:37;;;;;;;4.85;4.10;;;;;;;16.69;52.87;98162.63;4963466;28;103201;-65
2023/06/14 01:23:07;;;;;;;4.10;3.80;;;;;;;16.97;52.29;98160.50;4963967;28;102743;-65
2023/06/14 01:25:35;;;;;;;6.83;5.90;;;;;;;16.38;55.51;98180.13;4969102;28;103100;-64
2023/06/14 01:28:10;;;;;;;5.43;4.77;;;;;;;16.52;54.20;98171.50;4964658;28;103098;-65
2023/06/14 01:30:44;;;;;;;5.82;5.20;;;;;;;16.16;56.30;98171.69;4973001;28;103186;-65
2023/06/14 01:33:16;;;;;;;5.50;4.65;;;;;;;16.50;54.67;98171.69;4973804;28;103083;-64
2023/06/14 01:35:49;;;;;;;7.03;6.10;;;;;;;15.80;57.24;98175.47;4969259;28;104373;-65
2023/06/14 01:38:20;;;;;;;6.75;6.10;;;;;;;15.82;57.06;98169.97;4971333;28;103931;-65
2023/06/14 01:40:50;;;;;;;7.33;6.03;;;;;;;16.02;55.83;98163.44;4982225;28;104295;-65
2023/06/14 01:43:19;;;;;;;5.20;4.70;;;;;;;16.18;54.90;98180.34;4965547;28;104462;-64
2023/06/14 01:45:49;;;;;;;6.18;5.03;;;;;;;16.41;54.37;98163.81;4968422;28;102830;-65
2023/06/14 01:48:20;;;;;;;6.30;5.20;;;;;;;16.57;53.46;98170.06;4967513;28;103585;-65
2023/06/14 01:50:49;;;;;;;6.95;6.10;;;;;;;16.06;55.99;98162.13;4965959;28;103091;-65
2023/06/14 01:53:18;;;;;;;6.80;6.10;;;;;;;16.06;55.94;98167.44;4964062;28;103397;-65
2023/06/14 01:55:48;;;;;;;6.70;5.82;;;;;;;15.47;58.17;98174.34;4969090;28;102837;-65
2023/06/14 01:58:17;;;;;;;6.22;5.63;;;;;;;15.51;57.90;98175.75;4960321;28;104459;-65
2023/06/14 02:00:47;;;;;;;5.40;4.63;;;;;;;15.42;57.75;98170.44;4966436;28;103504;-65
2023/06/14 02:03:15;;;;;;;5.20;4.70;;;;;;;15.65;56.63;98169.84;4965426;28;103257;-66
2023/06/14 02:05:43;;;;;;;4.27;3.87;;;;;;;15.91;55.25;98166.38;4969429;28;102687;-65
2023/06/14 02:08:11;;;;;;;4.95;4.45;;;;;;;16.13;55.00;98174.66;4964036;28;104320;-65
2023/06/14 02:10:40;;;;;;;5.07;4.50;;;;;;;16.00;55.20;98174.25;4983009;28;103627;-65
2023/06/14 02:13:09;;;;;;;6.00;5.43;;;;;;;15.13;58.65;98176.00;4965915;28;103369;-66
2023/06/14 02:15:36;;;;;;;5.90;5.30;;;;;;;15.24;58.37;98173.13;4965985;28;102991;-65
2023/06/14 02:18:05;;;;;;;6.03;5.33;;;;;;;15.15;58.62;98179.38;4962056;28;104705;-65
2023/06/14 02:20:36;;;;;;;5.32;4.53;;;;;;;15.44;57.30;98173.78;4966046;28;102997;-65
2023/06/14 02:23:04;;;;;;;4.18;3.78;;;;;;;15.80;55.21;98170.13;4965823;28;103850;-65
2023/06/14 02:25:32;;;;;;;5.10;4.60;;;;;;;16.10;55.08;98177.66;4970866;28;102870;-65
2023/06/14 02:28:01;;;;;;;4.55;4.15;;;;;;;16.03;55.10;98175.75;4968057;28;103215;-65
2023/06/14 02:30:30;;;;;;;4.82;4.30;;;;;;;16.01;56.27;98175.06;4966559;28;103366;-66
2023/06/14 02:33:01;;;;;;;6.03;5.30;;;;;;;15.30;59.18;98175.16;4969176;28;102664;-65
2023/06/14 02:35:29;;;;;;;6.00;5.40;;;;;;;15.31;59.26;98174.19;4967166;28;103003;-65
2023/06/14 02:37:57;;;;;;;5.45;4.60;;;;;;;15.77;56.75;98174.94;4967645;28;104033;-65
2023/06/14 02:40:24;;;;;;;5.35;4.68;;;;;;;15.92;55.64;98178.69;4962525;28;103244;-65
2023/06/14 02:42:52;;;;;;;5.28;4.78;;;;;;;15.71;56.12;98171.06;4964053;28;102838;-66
2023/06/14 02:45:22;;;;;;;5.05;4.65;;;;;;;15.44;56.93;98174.63;4961791;28;103242;-65
2023/06/14 02:47:51;;;;;;;4.87;4.37;;;;;;;15.65;55.45;98174.34;4967933;28;103256;-66
2023/06/14 02:50:21;;;;;;;4.20;3.80;;;;;;;15.85;54.75;98172.31;4968695;28;103241;-65
2023/06/14 02:52:49;;;;;;;5.23;4.70;;;;;;;15.51;55.80;98175.75;4981035;28;102982;-65
2023/06/14 02:55:17;;;;;;;4.47;4.07;;;;;;;15.60;55.83;98180.13;4965693;28;102797;-66
2023/06/14 02:57:47;;;;;;;5.30;4.80;;;;;;;15.24;57.21;98183.75;4966951;28;105172;-63
2023/06/14 03:00:16;;;;;;;5.63;4.90;;;;;;;15.49;56.26;98176.88;4978216;28;103485;-65
2023/06/14 03:02:48;;;;;;;6.70;5.00;;;;;;;15.53;55.85;98179.06;4961594;28;102737;-65
2023/06/14 03:05:21;;;;;;;6.35;4.63;;;;;;;15.49;55.59;98174.22;4963681;28;104659;-65
2023/06/14 03:07:50;;;;;;;5.15;4.35;;;;;;;15.57;55.62;98180.44;4961170;28;103404;-66
2023/06/14 03:10:18;;;;;;;3.77;3.47;;;;;;;15.83;55.07;98179.63;4966586;28;103389;-65
2023/06/14 03:12:47;;;;;;;4.28;3.88;;;;;;;15.94;54.71;98182.03;4976010;28;102769;-66
2023/06/14 03:15:17;;;;;;;5.82;5.05;;;;;;;15.75;55.53;98188.38;4971819;28;104088;-65
2023/06/14 03:17:50;;;;;;;4.78;4.38;;;;;;;15.77;55.38;98185.59;4959607;28;103286;-66
2023/06/14 03:20:19;;;;;;;4.90;4.40;;;;;;;15.74;55.39;98191.22;4960848;28;103919;-66
2023/06/14 03:22:48;;;;;;;6.68;4.85;;;;;;;14.67;59.35;98187.66;4966120;28;102736;-66
2023/06/14 03:25:16;;;;;;;6.47;4.97;;;;;;;14.46;60.56;98193.22;4977423;28;102783;-65
2023/06/14 03:27:46;;;;;;;5.47;4.97;;;;;;;14.61;60.23;98203.38;4983958;28;103362;-66
2023/06/14 03:30:15;;;;;;;4.73;4.07;;;;;;;14.92;58.50;98199.41;4960745;28;104214;-66
2023/06/14 03:32:46;;;;;;;5.50;5.00;;;;;;;14.98;58.50;98199.66;4962076;28;102803;-66
2023/06/14 03:35:17;;;;;;;4.30;3.90;;;;;;;15.30;56.86;98196.47;4963586;28;102871;-64
2023/06/14 03:37:47;;;;;;;3.75;3.45;;;;;;;15.68;56.02;98202.47;4964166;28;103840;-65
2023/06/14 03:40:17;;;;;;;6.00;4.85;;;;;;;15.00;59.87;98207.47;4968892;28;103293;-64
2023/06/14 03:42:49;;;;;;;6.70;5.50;;;;;;;13.86;64.43;98221.09;4971463;28;102890;-65
2023/06/14 03:45:17;;;;;;;4.80;4.40;;;;;;;14.82;60.82;98204.78;4965936;28;102915;-65
2023/06/14 03:47:45;;;;;;;6.33;5.10;;;;;;;14.92;60.23;98213.56;4965707;28;103559;-65
2023/06/14 03:50:13;;;;;;;5.13;4.63;;;;;;;15.29;58.62;98216.09;4966331;28;105493;-65
2023/06/14 03:52:43;;;;;;;6.13;4.88;;;;;;;15.54;57.25;98215.38;4951978;28;102701;-65
2023/06/14 03:55:13;;;;;;;5.50;5.00;;;;;;;15.32;59.15;98218.47;4966167;28;103086;-65
2023/06/14 03:57:44;;;;;;;6.03;4.90;;;;;;;15.44;58.76;98227.88;4957208;28;104142;-65
2023/06/14 04:00:17;;;;;;;6.10;5.60;;;;;;;15.17;59.56;98225.28;4963580;28;103169;-66
2023/06/14 04:02:46;;;;;;;6.75;5.63;;;;;;;15.26;61.00;98223.53;4959169;28;102713;-65
2023/06/14 04:05:16;;;;;;;5.93;5.32;;;;;;;15.36;60.88;98225.13;4959987;28;103888;-66
2023/06/14 04:07:50;;;;;;;5.90;5.30;;;;;;;15.34;61.62;98224.47;4959175;28;103751;-65
2023/06/14 04:10:20;;;;;;;5.68;4.30;;;;;;;15.74;59.33;98231.16;4955978;28;104185;-65
2023/06/14 04:12:51;;;;;;;4.63;3.40;;;;;;;15.97;57.18;98229.69;4966188;28;102686;-65
2023/06/14 04:15:19;;;;;;;4.30;3.90;;;;;;;16.12;56.96;98226.28;4965321;28;103929;-66
2023/06/14 04:17:52;;;;;;;4.38;3.72;;;;;;;16.31;57.07;98233.22;4959840;28;104174;-65
2023/06/14 04:20:24;;;;;;;4.80;4.40;;;;;;;16.25;57.31;98234.69;4967433;28;103223;-64
2023/06/14 04:22:58;;;;;;;6.13;4.88;;;;;;;16.24;58.46;98243.69;4962944;28;102739;-64
2023/06/14 04:25:27;;;;;;;4.73;4.33;;;;;;;16.35;57.37;98239.91;4964667;28;103212;-64
2023/06/14 04:27:57;;;;;;;4.18;3.78;;;;;;;16.44;57.23;98246.13;4957741;28;104542;-64
2023/06/14 04:30:26;;;;;;;5.13;4.53;;;;;;;16.57;56.33;98239.41;4967482;28;103197;-64
2023/06/14 04:32:55;;;;;;;7.10;5.60;;;;;;;16.36;58.05;98249.59;4964153;28;102716;-65
2023/06/14 04:35:25;;;;;;;5.20;4.73;;;;;;;16.44;59.00;98244.31;4964614;28;103722;-64
2023/06/14 04:37:54;;;;;;;7.78;5.95;;;;;;;16.43;58.31;98247.94;4966634;28;103271;-65
2023/06/14 04:40:24;;;;;;;5.40;4.90;;;;;;;16.38;58.45;98250.25;4963176;28;103316;-64
2023/06/14 04:42:54;;;;;;;5.40;4.53;;;;;;;16.69;57.96;98251.47;4968008;28;102653;-64
2023/06/14 04:45:23;;;;;;;8.67;6.10;;;;;;;16.13;60.24;98272.41;4968159;28;102663;-65
2023/06/14 04:47:57;;;;;;;5.43;4.93;;;;;;;16.30;59.46;98268.88;4964926;28;103846;-64
2023/06/14 04:50:29;;;;;;;6.80;4.63;;;;;;;16.66;58.59;98257.13;4970068;28;103230;-66
2023/06/14 04:52:59;;;;;;;13.93;8.15;;;;;;;16.68;67.09;98272.94;4968644;28;104006;-63
2023/06/14 04:55:32;;;;;;;5.80;5.20;;;;;;;17.00;60.82;98272.25;4969068;28;103114;-64
2023/06/14 04:58:02;;;;;;;6.70;4.80;;;;;;;17.22;60.59;98282.34;4987357;28;103175;-65
2023/06/14 05:00:30;;;;;;;5.07;4.57;;;;;;;17.30;60.23;98275.19;4965720;28;105149;-64
2023/06/14 05:02:58;;;;;;;5.10;4.60;;;;;;;17.43;58.31;98280.06;4969414;28;102846;-64
2023/06/14 05:05:27;;;;;;;4.97;4.57;;;;;;;17.52;57.97;98279.06;4970043;28;103088;-66
2023/06/14 05:07:55;;;;;;;6.45;5.53;;;;;;;17.55;59.86;98284.13;4963403;28;105002;-65
2023/06/14 05:10:23;;;;;;;5.97;5.43;;;;;;;17.35;57.90;98280.03;4971031;28;103349;-66
2023/06/14 05:12:54;;;;;;;5.00;4.50;;;;;;;17.44;56.79;98281.72;4965968;28;102795;-65
2023/06/14 05:15:25;;;;;;;5.00;4.50;;;;;;;17.69;58.44;98280.78;4984170;28;102865;-64
2023/06/14 05:17:55;;;;;;;5.63;4.70;;;;;;;17.77;58.65;98278.13;4963690;28;103135;-65
2023/06/14 05:20:26;;;;;;;6.97;5.68;;;;;;;17.66;57.45;98283.78;4946864;28;103199;-64
2023/06/14 05:22:56;;;;;;;7.20;5.93;;;;;;;17.74;57.32;98281.13;4962886;28;102778;-64
2023/06/14 05:25:24;;;;;;;5.95;4.53;;;;;;;18.02;56.94;98280.81;4956388;28;103858;-64
2023/06/14 05:27:54;;;;;;;4.87;4.47;;;;;;;18.14;56.75;98279.47;4954061;28;103644;-64
2023/06/14 05:30:22;;;;;;;7.60;5.70;;;;;;;18.01;56.69;98279.13;4954520;28;103224;-66
2023/06/14 05:32:50;;;;;;;6.43;5.60;;;;;;;18.14;54.70;98280.31;4953136;28;102658;-64
2023/06/14 05:35:18;;;;;;;6.05;5.38;;;;;;;18.27;53.80;98285.97;4955391;28;103057;-64
2023/06/14 05:37:47;;;;;;;5.55;4.82;;;;;;;18.43;55.39;98295.81;4952882;28;103383;-65
2023/06/14 05:40:16;;;;;;;6.43;5.20;;;;;;;18.39;55.15;98289.13;4952511;28;103388;-64
2023/06/14 05:42:44;;;;;;;7.15;5.35;;;;;;;18.24;55.65;98288.16;4954699;28;102876;-65
2023/06/14 05:45:15;;;;;;;4.78;4.38;;;;;;;18.60;55.68;98297.50;4960557;28;104387;-65
2023/06/14 05:47:44;;;;;;;7.85;6.15;;;;;;;18.48;55.79;98294.34;4951502;28;103916;-66
2023/06/14 05:50:12;;;;;;;7.30;5.85;;;;;;;18.19;54.11;98293.19;4951333;28;102967;-64
2023/06/14 05:52:40;;;;;;;7.00;5.95;;;;;;;18.11;54.92;98290.47;4966471;28;103174;-64
2023/06/14 05:55:11;;;;;;;5.53;5.00;;;;;;;18.61;53.46;98298.31;4964360;28;103084;-64
2023/06/14 05:57:41;;;;;;;4.82;4.32;;;;;;;19.01;52.74;98285.63;4967845;28;103325;-64
2023/06/14 06:00:15;;;;;;;6.50;5.13;;;;;;;18.94;52.63;98286.50;4967463;28;103185;-64
2023/06/14 06:02:43;;;;;;;7.30;5.77;;;;;;;19.05;51.77;98292.31;4960428;28;103008;-64
2023/06/14 06:05:12;;;;;;;4.90;4.50;;;;;;;19.28;50.67;98284.34;4965411;28;102784;-64
2023/06/14 06:07:41;;;;;;;7.53;5.50;;;;;;;18.86;51.46;98290.03;4970058;28;103950;-65
2023/06/14 06:10:09;;;;;;;5.85;4.72;;;;;;;18.82;50.53;98294.06;4964300;28;103178;-64
2023/06/14 06:12:37;;;;;;;6.03;4.82;;;;;;;19.04;50.90;98284.44;4964191;28;102662;-64
2023/06/14 06:15:07;;;;;;;6.38;5.03;;;;;;;19.33;50.57;98295.38;4967118;28;103030;-66
2023/06/14 06:17:36;;;;;;;6.65;4.95;;;;;;;18.87;50.17;98293.56;4967513;28;104047;-65
2023/06/14 06:20:27;;;;;;;5.93;4.90;;;;;;;18.92;49.68;98302.72;4969697;28;103206;-64
2023/06/14 06:22:55;;;;;;;4.78;4.32;;;;;;;19.15;49.22;98297.44;4967550;28;102665;-65
2023/06/14 06:25:25;;;;;;;5.53;4.97;;;;;;;19.25;50.30;98307.97;4963113;28;102949;-65
2023/06/14 06:27:55;;;;;;;6.93;4.65;;;;;;;19.40;49.98;98306.22;4971389;28;102962;-65
2023/06/14 06:30:25;;;;;;;4.77;4.30;;;;;;;20.02;49.46;98302.47;4964913;28;103524;-65
2023/06/14 06:32:55;;;;;;;5.80;4.70;;;;;;;19.08;47.19;98308.03;4969770;28;102616;-66
2023/06/14 06:35:24;;;;;;;7.28;4.80;;;;;;;19.28;48.42;98305.78;4963389;28;102846;-66
2023/06/14 06:37:52;;;;;;;4.43;4.03;;;;;;;19.98;47.45;98306.53;4974517;28;103420;-66
2023/06/14 06:40:20;;;;;;;6.05;4.95;;;;;;;19.73;46.65;98307.72;4972163;28;103364;-65
2023/06/14 06:42:48;;;;;;;9.35;4.22;;;;;;;19.89;47.94;98312.97;4969089;28;102606;-65
2023/06/14 06:45:18;;;;;;;6.70;4.93;;;;;;;19.44;50.39;98312.91;4963312;28;103795;-66
2023/06/14 06:47:50;;;;;;;5.35;4.75;;;;;;;19.49;48.28;98311.38;4969101;28;104534;-65
2023/06/14 06:50:19;;;;;;;5.00;4.57;;;;;;;19.37;48.30;98311.94;4966980;28;104310;-66
2023/06/14 06:52:48;;;;;;;5.82;4.78;;;;;;;19.27;47.52;98316.66;4972120;28;102701;-66
2023/06/14 06:55:16;;;;;;;4.80;4.30;;;;;;;19.57;49.71;98323.88;4967946;28;102917;-65
2023/06/14 06:57:44;;;;;;;6.50;4.18;;;;;;;20.36;48.13;98325.34;4964826;28;104188;-68
2023/06/14 07:00:12;;;;;;;5.32;4.32;;;;;;;20.11;47.99;98328.22;4964092;28;103310;-67
2023/06/14 07:02:41;;;;;;;4.93;4.25;;;;;;;20.88;47.03;98331.56;4967417;28;102790;-67
2023/06/14 07:05:09;;;;;;;5.45;4.53;;;;;;;20.68;47.77;98336.63;4960429;28;103587;-67
2023/06/14 07:07:39;;;;;;;6.68;5.00;;;;;;;20.52;44.99;98330.59;4968519;28;104144;-67
2023/06/14 07:10:08;;;;;;;7.20;4.68;;;;;;;20.27;46.57;98331.81;4965283;28;103222;-67
2023/06/14 07:12:39;;;;;;;5.13;4.57;;;;;;;20.59;46.46;98335.03;4986839;28;103086;-67
2023/06/14 07:15:08;;;;;;;6.43;4.55;;;;;;;20.51;45.43;98334.28;4967807;28;102619;-67
2023/06/14 07:17:37;;;;;;;5.40;4.80;;;;;;;20.14;46.13;98340.44;4958293;28;104362;-67
2023/06/14 07:20:11;;;;;;;5.32;4.82;;;;;;;20.63;45.60;98343.56;4968209;28;103262;-68
2023/06/14 07:22:42;;;;;;;7.00;4.82;;;;;;;20.92;46.63;98343.56;4963443;28;102606;-68
2023/06/14 07:25:13;;;;;;;5.68;5.03;;;;;;;20.34;46.29;98338.94;4966606;28;102611;-67
2023/06/14 07:27:42;;;;;;;5.13;4.38;;;;;;;21.56;44.45;98344.66;4969477;28;103280;-67
2023/06/14 07:30:11;;;;;;;6.38;4.97;;;;;;;21.44;44.63;98354.25;4965874;28;103290;-67
2023/06/14 07:32:39;;;;;;;4.70;4.30;;;;;;;21.66;44.65;98349.75;4967219;28;102969;-67
2023/06/14 07:35:08;;;;;;;7.50;4.50;;;;;;;21.98;44.70;98354.69;4967366;28;102821;-67
2023/06/14 07:37:36;;;;;;;4.60;4.20;;;;;;;22.51;43.80;98353.34;4970737;28;103342;-67
2023/06/14 07:40:07;;;;;;;7.72;5.07;;;;;;;21.52;45.04;98356.00;4960661;28;103394;-67
2023/06/14 07:42:36;;;;;;;5.78;4.68;;;;;;;21.73;45.08;98359.53;4978425;28;102818;-67
2023/06/14 07:45:05;;;;;;;4.70;4.15;;;;;;;22.90;43.87;98359.06;4984264;28;102940;-67
2023/06/14 07:47:33;;;;;;;6.15;5.15;;;;;;;22.32;43.38;98360.19;4965543;28;103233;-67
2023/06/14 07:50:01;;;;;;;6.43;4.93;;;;;;;22.65;43.39;98362.38;4968719;28;103463;-68
2023/06/14 07:52:29;;;;;;;4.90;4.40;;;;;;;23.51;42.23;98362.75;4961502;28;102788;-67
2023/06/14 07:54:58;;;;;;;10.50;5.00;;;;;;;23.08;42.53;98361.22;4964751;28;102730;-68
2023/06/14 07:57:27;;;;;;;5.45;4.10;;;;;;;23.11;42.68;98363.53;4964260;28;103338;-67
2023/06/14 07:59:55;;;;;;;7.13;5.03;;;;;;;22.72;42.07;98352.47;4966053;28;103266;-68
2023/06/14 08:02:23;;;;;;;6.43;4.60;;;;;;;23.59;41.60;98351.78;4964879;28;102729;-68
2023/06/14 08:04:52;;;;;;;9.00;4.68;;;;;;;23.87;41.72;98350.84;4961364;28;103926;-68
2023/06/14 08:07:20;;;;;;;5.60;4.60;;;;;;;23.29;41.45;98353.06;4961519;28;103248;-68
2023/06/14 08:09:50;;;;;;;4.78;4.28;;;;;;;24.09;41.29;98346.94;4958495;28;103527;-68
2023/06/14 08:12:18;;;;;;;7.13;4.53;;;;;;;23.64;41.02;98351.16;4967151;28;102697;-68
2023/06/14 08:14:47;;;;;;;10.00;4.50;;;;;;;24.21;40.86;98348.03;4966641;28;102923;-69
2023/06/14 08:17:28;;;;;;;4.97;4.25;;;;;;;23.10;42.44;98353.78;4963732;28;103387;-69
2023/06/14 08:19:57;;;;;;;6.35;4.60;;;;;;;23.25;42.41;98351.78;4970771;28;103240;-68
2023/06/14 08:22:27;;;;;;;4.80;4.10;;;;;;;24.53;40.39;98341.84;4964546;28;103075;-69
2023/06/14 08:24:55;;;;;;;6.18;4.10;;;;;;;25.41;39.79;98348.56;4969398;28;102781;-69
2023/06/14 08:27:23;;;;;;;7.25;4.18;;;;;;;25.83;38.65;98347.16;4968331;28;103595;-69
2023/06/14 08:29:53;;;;;;;5.97;4.40;;;;;;;26.46;39.38;98350.75;4970790;28;104202;-67
2023/06/14 08:32:21;;;;;;;7.07;4.40;;;;;;;24.16;38.80;98355.91;4967909;28;102677;-68
2023/06/14 08:34:49;;;;;;;5.78;4.65;;;;;;;24.71;39.31;98350.13;4971614;28;102683;-68
2023/06/14 08:37:33;;;;;;;5.78;4.20;;;;;;;24.81;38.58;98359.72;4973402;28;104269;-68
2023/06/14 08:40:02;;;;;;;6.93;4.80;;;;;;;26.04;38.51;98356.84;4968594;28;103274;-68
2023/06/14 08:42:35;;;;;;;4.80;4.40;;;;;;;25.43;38.41;98359.19;4969505;28;103228;-68
2023/06/14 08:45:04;;;;;;;5.75;4.65;;;;;;;25.92;38.38;98359.41;4970573;28;103195;-67
2023/06/14 08:47:36;;;;;;;5.15;4.03;;;;;;;26.75;38.08;98350.06;4970314;28;103372;-68
2023/06/14 08:50:09;;;;;;;5.80;4.13;;;;;;;27.64;37.39;98360.47;4968714;28;103230;-68
2023/06/14 08:52:57;;;;;;;6.18;4.50;;;;;;;28.01;34.64;98355.81;4969509;28;102684;-68
2023/06/14 08:55:27;;;;;;;5.97;4.78;;;;;;;27.06;34.66;98357.31;4968931;28;102714;-68
2023/06/14 08:57:57;;;;;;;8.57;4.75;;;;;;;25.77;37.66;98359.69;4966637;28;103251;-68
2023/06/14 09:00:28;;;;;;;5.50;4.78;;;;;;;26.33;36.73;98356.28;4967687;28;103202;-68
2023/06/14 09:02:57;;;;;;;6.43;4.95;;;;;;;25.59;38.63;98364.97;4965870;28;102828;-68
2023/06/14 09:05:27;;;;;;;5.43;4.55;;;;;;;25.91;36.84;98363.13;4964440;28;103028;-68
2023/06/14 09:07:56;;;;;;;5.50;4.45;;;;;;;27.77;35.21;98349.44;4968839;28;103969;-68
2023/06/14 09:10:25;;;;;;;4.97;4.50;;;;;;;28.60;33.79;98353.03;4977275;28;104205;-69
2023/06/14 09:12:55;;;;;;;7.00;4.20;;;;;;;27.81;35.48;98356.09;4972709;28;104093;-69
2023/06/14 09:15:23;;;;;;;5.68;4.85;;;;;;;27.22;35.89;98361.34;4966246;28;103768;-69
2023/06/14 09:17:54;;;;;;;5.70;4.80;;;;;;;26.61;36.34;98358.56;4968876;28;103279;-69
2023/06/14 09:20:24;;;;;;;6.20;4.80;;;;;;;26.54;36.56;98357.78;4967309;28;103245;-69
2023/06/14 09:22:52;;;;;;;6.53;4.70;;;;;;;27.33;34.74;98357.88;4968908;28;102979;-69
2023/06/14 09:25:22;;;;;;;6.28;4.80;;;;;;;26.25;36.95;98367.34;4972549;28;103222;-69
2023/06/14 09:28:08;;;;;;;4.93;4.50;;;;;;;28.60;33.24;98360.38;4969178;28;104420;-69
2023/06/14 09:30:38;;;;;;;6.45;5.00;;;;;;;26.93;34.26;98358.28;4971147;28;103233;-69
2023/06/14 09:33:08;;;;;;;5.97;4.60;;;;;;;27.91;33.67;98356.34;4965463;28;103435;-70
2023/06/14 09:35:36;;;;;;;6.13;4.45;;;;;;;27.28;35.11;98363.16;4964738;28;103995;-70
2023/06/14 09:38:06;;;;;;;5.35;4.82;;;;;;;28.14;33.82;98356.50;4976003;28;103459;-67
2023/06/14 09:40:37;;;;;;;5.40;4.90;;;;;;;27.12;36.06;98361.84;4994971;28;103197;-69
2023/06/14 09:43:08;;;;;;;6.07;4.90;;;;;;;26.91;35.46;98365.00;5008034;27;102839;-68
2023/06/14 09:45:36;;;;;;;6.63;4.63;;;;;;;26.68;35.75;98365.56;4997607;28;103197;-68
2023/06/14 09:48:07;;;;;;;5.72;4.60;;;;;;;26.82;35.91;98366.31;4997489;28;102922;-68
2023/06/14 09:50:35;;;;;;;4.93;4.10;;;;;;;27.45;34.63;98366.97;4994985;28;103213;-69
2023/06/14 09:53:07;;;;;;;5.63;4.35;;;;;;;27.08;35.78;98362.53;5004542;28;103799;-68
2023/06/14 09:55:37;;;;;;;4.95;4.35;;;;;;;24.97;36.04;98359.28;4993592;28;102623;-69
2023/06/14 09:58:09;;;;;;;6.40;4.30;;;;;;;28.62;33.77;98359.09;5000976;28;103296;-68
2023/06/14 10:00:38;;;;;;;5.53;4.63;;;;;;;27.63;33.89;98356.09;4997585;27;103321;-68
2023/06/14 10:03:13;;;;;;;5.20;4.40;;;;;;;28.53;33.46;98352.34;4995065;28;102890;-69
2023/06/14 10:05:44;;;;;;;6.57;4.57;;;;;;;25.93;35.82;98359.19;5011797;27;102920;-68
2023/06/14 10:08:16;;;;;;;7.32;4.50;;;;;;;26.69;35.74;98348.28;4997190;28;103669;-68
2023/06/14 10:10:45;;;;;;;5.87;4.27;;;;;;;26.05;33.75;98355.81;4996052;28;103306;-67
2023/06/14 10:13:14;;;;;;;5.70;4.10;;;;;;;25.84;34.54;98357.78;4978016;28;102980;-68
2023/06/14 10:15:53;;;;;;;4.72;4.18;;;;;;;28.59;32.49;98347.84;4988038;28;103976;-67
2023/06/14 10:18:33;;;;;;;5.18;3.97;;;;;;;28.47;29.29;98355.16;4989421;28;103370;-68
2023/06/14 10:21:09;;;;;;;5.50;4.10;;;;;;;29.24;30.53;98346.75;4988707;28;103244;-68
2023/06/14 10:23:40;;;;;;;4.07;3.42;;;;;;;30.40;30.33;98351.03;4987612;28;103035;-67
2023/06/14 10:26:09;;;;;;;6.20;3.83;;;;;;;31.10;31.61;98340.47;4987679;28;103139;-66
2023/06/14 10:28:38;;;;;;;5.28;4.10;;;;;;;31.25;29.30;98346.13;4987236;28;103551;-66
2023/06/14 10:31:08;;;;;;;4.38;3.95;;;;;;;30.85;30.29;98343.59;4987436;28;103315;-66
2023/06/14 10:33:40;;;;;;;6.80;4.10;;;;;;;29.15;31.93;98342.72;4987867;28;102971;-66
2023/06/14 10:36:27;;;;;;;5.97;4.50;;;;;;;26.49;35.21;98344.91;4989187;28;103794;-66
2023/06/14 10:38:59;;;;;;;4.70;4.10;;;;;;;25.78;34.47;98350.53;4986953;28;104111;-65
2023/06/14 10:41:28;;;;;;;5.85;3.78;;;;;;;26.67;34.21;98342.22;4988159;28;103190;-65
2023/06/14 10:44:34;;;;;;;4.72;3.80;;;;;;;26.11;32.09;98346.78;4987927;28;103305;-66
2023/06/14 10:47:02;;;;;;;5.15;3.75;;;;;;;27.73;30.65;98340.13;4947191;28;102925;-65
2023/06/14 10:49:45;;;;;;;5.45;3.75;;;;;;;26.86;29.85;98346.66;4980715;28;103317;-68
2023/06/14 10:52:18;;;;;;;4.60;3.90;;;;;;;27.69;29.45;98344.34;4983927;28;103276;-69
2023/06/14 10:55:13;;;;;;;5.63;3.90;;;;;;;27.98;29.86;98335.41;4996159;28;102946;-69
2023/06/14 10:57:45;;;;;;;4.15;3.40;;;;;;;29.58;29.51;98336.88;4988874;28;102963;-69
2023/06/14 11:00:24;;;;;;;6.38;3.42;;;;;;;30.42;28.23;98332.53;4992759;28;103667;-67
2023/06/14 11:03:36;;;;;;;4.45;3.80;;;;;;;29.07;29.53;98340.34;4994848;28;103340;-68
2023/06/14 11:06:14;;;;;;;5.95;3.78;;;;;;;30.38;28.35;98334.09;4992476;28;102916;-68
2023/06/14 11:09:27;;;;;;;5.45;3.45;;;;;;;31.41;27.61;98337.06;4998054;28;104198;-68
2023/06/14 11:11:57;;;;;;;4.43;3.67;;;;;;;28.68;28.58;98332.91;4992864;28;103306;-69
2023/06/14 11:14:25;;;;;;;6.45;3.85;;;;;;;29.15;28.41;98326.38;4991934;28;103174;-68
2023/06/14 11:16:53;;;;;;;4.57;3.80;;;;;;;30.26;27.26;98328.66;4992683;28;102944;-69
2023/06/14 11:19:22;;;;;;;3.83;3.40;;;;;;;30.40;27.48;98324.59;4995110;28;103135;-69
2023/06/14 11:21:51;;;;;;;4.32;3.70;;;;;;;30.57;27.35;98323.78;4991304;28;103279;-67
2023/06/14 11:24:20;;;;;;;4.25;3.63;;;;;;;28.97;29.08;98326.50;4993210;28;103218;-69
2023/06/14 11:26:50;;;;;;;4.63;3.60;;;;;;;29.02;29.17;98320.38;5001787;28;103707;-68
2023/06/14 11:29:21;;;;;;;5.37;3.80;;;;;;;29.13;28.81;98333.13;4995696;28;103828;-68
2023/06/14 11:31:49;;;;;;;4.25;3.85;;;;;;;28.16;29.03;98331.81;4996153;28;103237;-69
2023/06/14 11:34:18;;;;;;;7.35;3.92;;;;;;;27.47;29.97;98341.28;4993651;28;103303;-68
2023/06/14 11:36:49;;;;;;;4.60;3.63;;;;;;;26.39;30.18;98339.13;4993540;28;103207;-69
2023/06/14 11:39:18;;;;;;;4.55;3.60;;;;;;;27.14;30.38;98339.97;4992658;28;104664;-70